Time,TemperatureF,DewpointF,PressureIn,WindDirection,WindDirectionDegrees,WindSpeedMPH,WindSpeedGustMPH,Humidity,HourlyPrecipIn,Conditions,Clouds,dailyrainin,SoftwareType,DateUTC
2013-09-23 00:04:00,61.9,40.3,29.70,SSE,148,6.0,10.0,45,0.00,,,0.00,WeatherTracker,2013-09-23 06:04:00,
2013-09-23 00:09:00,61.7,40.1,29.70,SE,140,3.0,8.0,45,0.00,,,0.00,WeatherTracker,2013-09-23 06:09:00,
2013-09-23 00:14:00,61.5,39.4,29.70,SSE,152,3.0,7.0,44,0.00,,,0.00,WeatherTracker,2013-09-23 06:14:00,
2013-09-23 00:19:00,61.5,39.4,29.70,SSE,151,2.0,9.0,44,0.00,,,0.00,WeatherTracker,2013-09-23 06:19:00,
2013-09-23 00:24:00,61.3,38.6,29.70,SSE,157,3.0,11.0,43,0.00,,,0.00,WeatherTracker,2013-09-23 06:24:00,
2013-09-23 00:29:00,61.2,37.3,29.71,ESE,113,2.0,11.0,41,0.00,,,0.00,WeatherTracker,2013-09-23 06:29:00,
2013-09-23 00:34:00,61.1,36.0,29.71,SSW,196,4.0,13.0,39,0.00,,,0.00,WeatherTracker,2013-09-23 06:34:00,
2013-09-23 00:39:00,61.0,35.2,29.71,SSE,160,5.0,13.0,38,0.00,,,0.00,WeatherTracker,2013-09-23 06:39:00,
2013-09-23 00:44:00,61.1,33.2,29.71,ESE,119,5.0,10.0,35,0.00,,,0.00,WeatherTracker,2013-09-23 06:44:00,
2013-09-23 00:49:00,61.4,32.8,29.72,South,172,7.0,8.0,34,0.00,,,0.00,WeatherTracker,2013-09-23 06:49:00,
2013-09-23 00:54:00,61.3,32.0,29.72,SSW,197,2.0,10.0,33,0.00,,,0.00,WeatherTracker,2013-09-23 06:54:00,
2013-09-23 00:59:00,61.2,32.6,29.72,SE,140,1.0,10.0,34,0.00,,,0.00,WeatherTracker,2013-09-23 06:59:00,
2013-09-23 01:04:00,60.8,33.0,29.73,SSE,151,4.0,7.0,35,0.00,,,0.00,WeatherTracker,2013-09-23 07:04:00,
2013-09-23 01:09:00,60.3,33.2,29.73,South,169,0.0,5.0,36,0.00,,,0.00,WeatherTracker,2013-09-23 07:09:00,
2013-09-23 01:15:00,59.7,34.1,29.73,South,180,1.0,5.0,38,0.00,,,0.00,WeatherTracker,2013-09-23 07:15:00,
2013-09-23 01:20:00,59.5,33.9,29.73,SSE,157,2.0,5.0,38,0.00,,,0.00,WeatherTracker,2013-09-23 07:20:00,
2013-09-23 01:25:00,59.4,33.8,29.73,SSE,163,1.0,5.0,38,0.00,,,0.00,WeatherTracker,2013-09-23 07:25:00,
2013-09-23 01:30:00,59.3,33.7,29.73,SSE,161,0.0,4.0,38,0.00,,,0.00,WeatherTracker,2013-09-23 07:30:00,
2013-09-23 01:35:00,59.0,33.4,29.73,SSE,165,1.0,4.0,38,0.00,,,0.00,WeatherTracker,2013-09-23 07:35:00,
2013-09-23 01:40:00,58.7,34.4,29.73,SSE,165,0.0,3.0,40,0.00,,,0.00,WeatherTracker,2013-09-23 07:40:00,
2013-09-23 01:45:00,58.4,32.9,29.74,SSE,165,0.0,3.0,38,0.00,,,0.00,WeatherTracker,2013-09-23 07:45:00,
2013-09-23 01:50:00,58.3,34.7,29.74,SSE,165,0.0,2.0,41,0.00,,,0.00,WeatherTracker,2013-09-23 07:50:00,
2013-09-23 01:55:00,58.0,35.0,29.74,SSE,164,1.0,2.0,42,0.00,,,0.00,WeatherTracker,2013-09-23 07:55:00,
2013-09-23 02:00:00,57.9,34.9,29.74,ESE,115,0.0,4.0,42,0.00,,,0.00,WeatherTracker,2013-09-23 08:00:00,
2013-09-23 02:05:00,57.3,36.1,29.74,ESE,115,0.0,4.0,45,0.00,,,0.00,WeatherTracker,2013-09-23 08:05:00,
2013-09-23 02:10:00,56.8,36.2,29.74,ESE,115,2.0,3.0,46,0.00,,,0.00,WeatherTracker,2013-09-23 08:10:00,
2013-09-23 02:15:00,56.7,36.7,29.74,East,94,1.0,3.0,47,0.00,,,0.00,WeatherTracker,2013-09-23 08:15:00,
2013-09-23 02:20:00,56.5,36.5,29.74,East,96,0.0,3.0,47,0.00,,,0.00,WeatherTracker,2013-09-23 08:20:00,
2013-09-23 02:25:00,56.3,36.3,29.74,East,96,0.0,2.0,47,0.00,,,0.00,WeatherTracker,2013-09-23 08:25:00,
2013-09-23 02:30:00,56.0,35.5,29.74,East,96,0.0,2.0,46,0.00,,,0.00,WeatherTracker,2013-09-23 08:30:00,
2013-09-23 02:35:00,55.8,36.9,29.74,East,96,0.0,2.0,49,0.00,,,0.00,WeatherTracker,2013-09-23 08:35:00,
2013-09-23 02:40:00,55.6,36.2,29.74,East,96,0.0,2.0,48,0.00,,,0.00,WeatherTracker,2013-09-23 08:40:00,
2013-09-23 02:45:00,55.7,36.3,29.74,East,96,0.0,2.0,48,0.00,,,0.00,WeatherTracker,2013-09-23 08:45:00,
2013-09-23 02:50:00,55.5,35.6,29.74,East,96,0.0,1.0,47,0.00,,,0.00,WeatherTracker,2013-09-23 08:50:00,
2013-09-23 02:55:00,54.6,37.3,29.74,East,96,0.0,1.0,52,0.00,,,0.00,WeatherTracker,2013-09-23 08:55:00,
2013-09-23 03:00:00,53.5,39.5,29.75,East,96,0.0,1.0,59,0.00,,,0.00,WeatherTracker,2013-09-23 09:00:00,
2013-09-23 03:06:00,52.5,40.3,29.74,East,96,1.0,2.0,63,0.00,,,0.00,WeatherTracker,2013-09-23 09:06:00,
2013-09-23 03:11:00,53.3,38.9,29.75,East,96,1.0,3.0,58,0.00,,,0.00,WeatherTracker,2013-09-23 09:11:00,
2013-09-23 03:16:00,53.9,38.6,29.75,East,96,0.0,3.0,56,0.00,,,0.00,WeatherTracker,2013-09-23 09:16:00,
2013-09-23 03:21:00,53.9,37.6,29.75,East,96,0.0,2.0,54,0.00,,,0.00,WeatherTracker,2013-09-23 09:21:00,
2013-09-23 03:26:00,54.0,37.3,29.76,East,96,0.0,2.0,53,0.00,,,0.00,WeatherTracker,2013-09-23 09:26:00,
2013-09-23 03:31:00,53.5,39.1,29.76,East,96,0.0,2.0,58,0.00,,,0.00,WeatherTracker,2013-09-23 09:31:00,
2013-09-23 03:36:00,53.2,38.8,29.76,East,96,0.0,2.0,58,0.00,,,0.00,WeatherTracker,2013-09-23 09:36:00,
2013-09-23 03:41:00,52.9,38.5,29.76,East,96,0.0,2.0,58,0.00,,,0.00,WeatherTracker,2013-09-23 09:41:00,
2013-09-23 03:46:00,53.3,37.1,29.76,East,96,0.0,0.0,54,0.00,,,0.00,WeatherTracker,2013-09-23 09:46:00,
2013-09-23 03:51:00,53.3,37.5,29.76,East,96,0.0,1.0,55,0.00,,,0.00,WeatherTracker,2013-09-23 09:51:00,
2013-09-23 03:56:00,53.3,37.1,29.76,East,101,0.0,2.0,54,0.00,,,0.00,WeatherTracker,2013-09-23 09:56:00,
2013-09-23 04:01:00,53.5,36.8,29.77,East,101,0.0,2.0,53,0.00,,,0.00,WeatherTracker,2013-09-23 10:01:00,
2013-09-23 04:06:00,54.1,35.4,29.77,SE,135,3.0,4.0,49,0.00,,,0.00,WeatherTracker,2013-09-23 10:06:00,
2013-09-23 04:11:00,54.5,35.7,29.77,SE,136,0.0,4.0,49,0.00,,,0.00,WeatherTracker,2013-09-23 10:11:00,
2013-09-23 04:16:00,54.1,37.4,29.77,SE,136,0.0,3.0,53,0.00,,,0.00,WeatherTracker,2013-09-23 10:16:00,
2013-09-23 04:21:00,53.7,38.4,29.77,SE,136,0.0,1.0,56,0.00,,,0.00,WeatherTracker,2013-09-23 10:21:00,
2013-09-23 04:26:00,53.2,38.4,29.77,SE,136,0.0,1.0,57,0.00,,,0.00,WeatherTracker,2013-09-23 10:26:00,
2013-09-23 04:31:00,52.8,38.4,29.77,SE,136,1.0,1.0,58,0.00,,,0.00,WeatherTracker,2013-09-23 10:31:00,
2013-09-23 04:36:00,52.7,38.3,29.77,SE,136,1.0,1.0,58,0.00,,,0.00,WeatherTracker,2013-09-23 10:36:00,
2013-09-23 04:41:00,51.8,40.0,29.77,SE,135,2.0,2.0,64,0.00,,,0.00,WeatherTracker,2013-09-23 10:41:00,
2013-09-23 04:46:00,51.5,38.5,29.78,SE,135,2.0,4.0,61,0.00,,,0.00,WeatherTracker,2013-09-23 10:46:00,
2013-09-23 04:51:00,51.7,39.1,29.78,North,350,2.0,4.0,62,0.00,,,0.00,WeatherTracker,2013-09-23 10:51:00,
2013-09-23 04:56:00,51.8,39.2,29.78,NNW,336,2.0,4.0,62,0.00,,,0.00,WeatherTracker,2013-09-23 10:56:00,
2013-09-23 05:01:00,51.6,39.4,29.78,NNW,336,1.0,4.0,63,0.00,,,0.00,WeatherTracker,2013-09-23 11:01:00,
2013-09-23 05:07:00,51.1,39.7,29.78,NNW,336,0.0,2.0,65,0.00,,,0.00,WeatherTracker,2013-09-23 11:07:00,
2013-09-23 05:12:00,50.8,39.9,29.79,NNW,336,0.0,2.0,66,0.00,,,0.00,WeatherTracker,2013-09-23 11:12:00,
2013-09-23 05:17:00,50.4,39.9,29.79,NNW,336,0.0,2.0,67,0.00,,,0.00,WeatherTracker,2013-09-23 11:17:00,
2013-09-23 05:22:00,50.0,39.9,29.79,NNW,336,2.0,3.0,68,0.00,,,0.00,WeatherTracker,2013-09-23 11:22:00,
2013-09-23 05:27:00,50.3,39.8,29.79,NNW,336,0.0,3.0,67,0.00,,,0.00,WeatherTracker,2013-09-23 11:27:00,
2013-09-23 05:32:00,50.4,39.5,29.79,NNW,336,2.0,2.0,66,0.00,,,0.00,WeatherTracker,2013-09-23 11:32:00,
2013-09-23 05:37:00,50.8,39.5,29.79,NNW,336,0.0,4.0,65,0.00,,,0.00,WeatherTracker,2013-09-23 11:37:00,
2013-09-23 05:42:00,51.1,38.5,29.80,North,355,2.0,4.0,62,0.00,,,0.00,WeatherTracker,2013-09-23 11:42:00,
2013-09-23 05:47:00,51.0,38.9,29.80,North,355,0.0,3.0,63,0.00,,,0.00,WeatherTracker,2013-09-23 11:47:00,
2013-09-23 05:52:00,50.5,38.8,29.80,North,355,0.0,3.0,64,0.00,,,0.00,WeatherTracker,2013-09-23 11:52:00,
2013-09-23 05:57:00,50.0,39.5,29.80,North,355,0.0,1.0,67,0.00,,,0.00,WeatherTracker,2013-09-23 11:57:00,
2013-09-23 06:02:00,49.6,39.1,29.80,North,355,0.0,0.0,67,0.00,,,0.00,WeatherTracker,2013-09-23 12:02:00,
2013-09-23 06:07:00,49.6,39.1,29.80,North,355,0.0,0.0,67,0.00,,,0.00,WeatherTracker,2013-09-23 12:07:00,
2013-09-23 06:12:00,50.2,38.1,29.80,North,355,0.0,1.0,63,0.00,,,0.00,WeatherTracker,2013-09-23 12:12:00,
2013-09-23 06:17:00,49.6,39.1,29.80,North,355,0.0,1.0,67,0.00,,,0.00,WeatherTracker,2013-09-23 12:17:00,
2013-09-23 06:22:00,49.4,39.3,29.80,North,355,0.0,0.0,68,0.00,,,0.00,WeatherTracker,2013-09-23 12:22:00,
2013-09-23 06:27:00,49.0,39.6,29.80,North,355,0.0,0.0,70,0.00,,,0.00,WeatherTracker,2013-09-23 12:27:00,
2013-09-23 06:32:00,49.0,39.6,29.81,North,355,0.0,0.0,70,0.00,,,0.00,WeatherTracker,2013-09-23 12:32:00,
2013-09-23 06:37:00,48.7,40.1,29.81,North,355,0.0,0.0,72,0.00,,,0.00,WeatherTracker,2013-09-23 12:37:00,
2013-09-23 06:43:00,48.2,40.0,29.81,North,355,1.0,1.0,73,0.00,,,0.00,WeatherTracker,2013-09-23 12:43:00,
2013-09-23 06:48:00,48.5,40.6,29.82,North,355,0.0,2.0,74,0.00,,,0.00,WeatherTracker,2013-09-23 12:48:00,
2013-09-23 06:53:00,48.5,39.9,29.82,North,355,0.0,2.0,72,0.00,,,0.00,WeatherTracker,2013-09-23 12:53:00,
2013-09-23 06:58:00,48.2,40.0,29.82,North,355,0.0,0.0,73,0.00,,,0.00,WeatherTracker,2013-09-23 12:58:00,
2013-09-23 07:03:00,47.8,39.9,29.83,North,355,0.0,0.0,74,0.00,,,0.00,WeatherTracker,2013-09-23 13:03:00,
2013-09-23 07:08:00,47.9,40.4,29.83,North,355,0.0,0.0,75,0.00,,,0.00,WeatherTracker,2013-09-23 13:08:00,
2013-09-23 07:13:00,48.3,40.1,29.83,North,355,0.0,0.0,73,0.00,,,0.00,WeatherTracker,2013-09-23 13:13:00,
2013-09-23 07:18:00,48.9,40.6,29.84,North,355,0.0,0.0,73,0.00,,,0.00,WeatherTracker,2013-09-23 13:18:00,
2013-09-23 07:23:00,49.2,40.6,29.84,North,355,0.0,0.0,72,0.00,,,0.00,WeatherTracker,2013-09-23 13:23:00,
2013-09-23 07:28:00,49.6,41.7,29.84,North,355,0.0,1.0,74,0.00,,,0.00,WeatherTracker,2013-09-23 13:28:00,
2013-09-23 07:33:00,50.2,41.9,29.85,North,355,0.0,1.0,73,0.00,,,0.00,WeatherTracker,2013-09-23 13:33:00,
2013-09-23 07:38:00,51.0,40.8,29.84,North,355,0.0,3.0,68,0.00,,,0.00,WeatherTracker,2013-09-23 13:38:00,
2013-09-23 07:43:00,52.1,41.1,29.85,North,355,1.0,3.0,66,0.00,,,0.00,WeatherTracker,2013-09-23 13:43:00,
2013-09-23 07:48:00,52.8,41.0,29.85,North,355,0.0,2.0,64,0.00,,,0.00,WeatherTracker,2013-09-23 13:48:00,
2013-09-23 07:53:00,53.4,40.3,29.85,North,355,1.0,2.0,61,0.00,,,0.00,WeatherTracker,2013-09-23 13:53:00,
2013-09-23 07:58:00,54.0,40.9,29.84,North,355,1.0,2.0,61,0.00,,,0.00,WeatherTracker,2013-09-23 13:58:00,
2013-09-23 08:03:00,54.7,41.1,29.84,North,355,0.0,2.0,60,0.00,,,0.00,WeatherTracker,2013-09-23 14:03:00,
2013-09-23 08:08:00,55.4,40.4,29.85,NNE,25,1.0,2.0,57,0.00,,,0.00,WeatherTracker,2013-09-23 14:08:00,
2013-09-23 08:13:00,56.0,39.6,29.85,North,11,0.0,3.0,54,0.00,,,0.00,WeatherTracker,2013-09-23 14:13:00,
2013-09-23 08:18:00,56.0,39.1,29.85,NE,46,0.0,3.0,53,0.00,,,0.00,WeatherTracker,2013-09-23 14:18:00,
2013-09-23 08:24:00,56.4,39.0,29.85,NE,46,0.0,2.0,52,0.00,,,0.00,WeatherTracker,2013-09-23 14:24:00,
2013-09-23 08:29:00,56.7,38.8,29.86,NE,46,1.0,2.0,51,0.00,,,0.00,WeatherTracker,2013-09-23 14:29:00,
2013-09-23 08:34:00,57.2,38.2,29.86,NE,46,0.0,2.0,49,0.00,,,0.00,WeatherTracker,2013-09-23 14:34:00,
2013-09-23 08:39:00,57.4,37.9,29.86,NE,46,0.0,2.0,48,0.00,,,0.00,WeatherTracker,2013-09-23 14:39:00,
2013-09-23 08:44:00,57.7,37.6,29.86,NE,46,0.0,2.0,47,0.00,,,0.00,WeatherTracker,2013-09-23 14:44:00,
2013-09-23 08:49:00,58.1,37.4,29.86,NE,55,0.0,2.0,46,0.00,,,0.00,WeatherTracker,2013-09-23 14:49:00,
2013-09-23 08:54:00,58.5,37.8,29.87,NNE,22,2.0,3.0,46,0.00,,,0.00,WeatherTracker,2013-09-23 14:54:00,
2013-09-23 08:59:00,58.6,37.9,29.87,ENE,73,0.0,3.0,46,0.00,,,0.00,WeatherTracker,2013-09-23 14:59:00,
2013-09-23 09:04:00,58.7,39.6,29.87,ENE,78,0.0,2.0,49,0.00,,,0.00,WeatherTracker,2013-09-23 15:04:00,
2013-09-23 09:09:00,58.9,38.7,29.87,NE,53,0.0,3.0,47,0.00,,,0.00,WeatherTracker,2013-09-23 15:09:00,
2013-09-23 09:14:00,59.3,38.5,29.88,East,82,0.0,3.0,46,0.00,,,0.00,WeatherTracker,2013-09-23 15:14:00,
2013-09-23 09:19:00,59.6,38.2,29.88,ESE,106,1.0,3.0,45,0.00,,,0.00,WeatherTracker,2013-09-23 15:19:00,
2013-09-23 09:24:00,59.7,38.3,29.88,SE,136,1.0,3.0,45,0.00,,,0.00,WeatherTracker,2013-09-23 15:24:00,
2013-09-23 09:29:00,60.1,37.5,29.88,East,92,1.0,3.0,43,0.00,,,0.00,WeatherTracker,2013-09-23 15:29:00,
2013-09-23 09:34:00,59.9,38.5,29.88,East,82,1.0,5.0,45,0.00,,,0.00,WeatherTracker,2013-09-23 15:34:00,
2013-09-23 09:39:00,60.1,38.1,29.88,North,360,2.0,5.0,44,0.00,,,0.00,WeatherTracker,2013-09-23 15:39:00,
2013-09-23 09:44:00,60.3,38.3,29.89,East,84,0.0,4.0,44,0.00,,,0.00,WeatherTracker,2013-09-23 15:44:00,
2013-09-23 09:49:00,60.9,38.3,29.89,SSE,155,0.0,4.0,43,0.00,,,0.00,WeatherTracker,2013-09-23 15:49:00,
2013-09-23 09:54:00,61.2,37.9,29.89,ESE,109,0.0,3.0,42,0.00,,,0.00,WeatherTracker,2013-09-23 15:54:00,
2013-09-23 09:59:00,61.9,39.7,29.89,ENE,59,0.0,3.0,44,0.00,,,0.00,WeatherTracker,2013-09-23 15:59:00,
2013-09-23 10:04:00,61.3,38.6,29.89,ENE,75,0.0,5.0,43,0.00,,,0.00,WeatherTracker,2013-09-23 16:04:00,
2013-09-23 10:09:00,61.3,38.6,29.89,East,95,1.0,5.0,43,0.00,,,0.00,WeatherTracker,2013-09-23 16:09:00,
2013-09-23 10:14:00,62.3,38.9,29.89,East,85,2.0,3.0,42,0.00,,,0.00,WeatherTracker,2013-09-23 16:14:00,
2013-09-23 10:19:00,62.4,39.0,29.89,East,85,0.0,3.0,42,0.00,,,0.00,WeatherTracker,2013-09-23 16:19:00,
2013-09-23 10:24:00,62.9,39.5,29.89,NNE,15,0.0,3.0,42,0.00,,,0.00,WeatherTracker,2013-09-23 16:24:00,
2013-09-23 10:29:00,62.7,38.7,29.89,NNE,19,0.0,4.0,41,0.00,,,0.00,WeatherTracker,2013-09-23 16:29:00,
2013-09-23 10:35:00,63.5,40.0,29.89,NNE,20,0.0,4.0,42,0.00,,,0.00,WeatherTracker,2013-09-23 16:35:00,
2013-09-23 10:40:00,64.8,42.4,29.89,NNE,20,1.0,2.0,44,0.00,,,0.00,WeatherTracker,2013-09-23 16:40:00,
2013-09-23 10:45:00,64.4,40.2,29.89,East,82,5.0,5.0,41,0.00,,,0.00,WeatherTracker,2013-09-23 16:45:00,
2013-09-23 10:50:00,64.7,39.2,29.89,SSE,165,1.0,5.0,39,0.00,,,0.00,WeatherTracker,2013-09-23 16:50:00,
2013-09-23 10:55:00,65.6,38.6,29.89,SSE,157,2.0,6.0,37,0.00,,,0.00,WeatherTracker,2013-09-23 16:55:00,
2013-09-23 11:00:00,65.7,38.7,29.89,ENE,75,4.0,6.0,37,0.00,,,0.00,WeatherTracker,2013-09-23 17:00:00,
2013-09-23 11:05:00,65.7,39.4,29.89,SSE,149,1.0,6.0,38,0.00,,,0.00,WeatherTracker,2013-09-23 17:05:00,
2013-09-23 11:10:00,67.1,40.0,29.89,South,170,2.0,5.0,37,0.00,,,0.00,WeatherTracker,2013-09-23 17:10:00,
2013-09-23 11:15:00,67.5,38.1,29.89,NW,316,1.0,4.0,34,0.00,,,0.00,WeatherTracker,2013-09-23 17:15:00,
2013-09-23 11:20:00,67.8,41.9,29.89,West,259,3.0,3.0,39,0.00,,,0.00,WeatherTracker,2013-09-23 17:20:00,
2013-09-23 11:25:00,67.6,39.0,29.89,South,186,0.0,6.0,35,0.00,,,0.00,WeatherTracker,2013-09-23 17:25:00,
2013-09-23 11:30:00,67.0,39.2,29.90,ESE,122,4.0,6.0,36,0.00,,,0.00,WeatherTracker,2013-09-23 17:30:00,
2013-09-23 11:35:00,67.3,40.1,29.89,NNE,16,1.0,7.0,37,0.00,,,0.00,WeatherTracker,2013-09-23 17:35:00,
2013-09-23 11:40:00,68.1,40.8,29.90,SW,227,1.0,7.0,37,0.00,,,0.00,WeatherTracker,2013-09-23 17:40:00,
2013-09-23 11:45:00,69.9,41.0,29.89,WSW,258,3.0,3.0,35,0.00,,,0.00,WeatherTracker,2013-09-23 17:45:00,
2013-09-23 11:50:00,69.8,40.2,29.89,SSE,152,4.0,7.0,34,0.00,,,0.00,WeatherTracker,2013-09-23 17:50:00,
2013-09-23 11:55:00,70.0,38.8,29.89,WSW,238,0.0,7.0,32,0.00,,,0.00,WeatherTracker,2013-09-23 17:55:00,
2013-09-23 12:00:00,70.1,38.9,29.90,SSE,160,2.0,8.0,32,0.00,,,0.00,WeatherTracker,2013-09-23 18:00:00,
2013-09-23 12:05:00,70.1,40.4,29.90,SSW,197,0.0,10.0,34,0.00,,,0.00,WeatherTracker,2013-09-23 18:05:00,
2013-09-23 12:10:00,71.2,39.8,29.90,SE,146,1.0,10.0,32,0.00,,,0.00,WeatherTracker,2013-09-23 18:10:00,
2013-09-23 12:15:00,71.0,40.4,29.89,SSE,150,4.0,9.0,33,0.00,,,0.00,WeatherTracker,2013-09-23 18:15:00,
2013-09-23 12:20:00,70.5,40.0,29.89,East,90,1.0,9.0,33,0.00,,,0.00,WeatherTracker,2013-09-23 18:20:00,
2013-09-23 12:26:00,70.5,40.0,29.89,ESE,114,3.0,11.0,33,0.00,,,0.00,WeatherTracker,2013-09-23 18:26:00,
2013-09-23 12:31:00,71.0,38.8,29.90,SE,132,4.0,11.0,31,0.00,,,0.00,WeatherTracker,2013-09-23 18:31:00,
2013-09-23 12:36:00,71.0,38.8,29.89,ENE,65,5.0,11.0,31,0.00,,,0.00,WeatherTracker,2013-09-23 18:36:00,
2013-09-23 12:41:00,71.6,38.5,29.90,SSE,165,2.0,8.0,30,0.00,,,0.00,WeatherTracker,2013-09-23 18:41:00,
2013-09-23 12:46:00,72.2,39.9,29.89,WNW,286,0.0,8.0,31,0.00,,,0.00,WeatherTracker,2013-09-23 18:46:00,
2013-09-23 12:51:00,73.3,40.8,29.89,ESE,107,2.0,7.0,31,0.00,,,0.00,WeatherTracker,2013-09-23 18:51:00,
2013-09-23 12:56:00,73.1,39.8,29.89,NW,313,4.0,11.0,30,0.00,,,0.00,WeatherTracker,2013-09-23 18:56:00,
2013-09-23 13:01:00,73.2,39.9,29.89,SSW,207,7.0,12.0,30,0.00,,,0.00,WeatherTracker,2013-09-23 19:01:00,
2013-09-23 13:06:00,73.0,39.7,29.89,SW,214,1.0,12.0,30,0.00,,,0.00,WeatherTracker,2013-09-23 19:06:00,
2013-09-23 13:11:00,73.9,39.6,29.88,SW,229,4.0,10.0,29,0.00,,,0.00,WeatherTracker,2013-09-23 19:11:00,
2013-09-23 13:16:00,73.9,38.7,29.88,NNE,29,1.0,10.0,28,0.00,,,0.00,WeatherTracker,2013-09-23 19:16:00,
2013-09-23 13:21:00,74.7,41.2,29.89,SE,137,2.0,6.0,30,0.00,,,0.00,WeatherTracker,2013-09-23 19:21:00,
2013-09-23 13:26:00,73.4,37.4,29.88,SE,126,4.0,8.0,27,0.00,,,0.00,WeatherTracker,2013-09-23 19:26:00,
2013-09-23 13:31:00,72.6,38.5,29.88,SE,143,6.0,9.0,29,0.00,,,0.00,WeatherTracker,2013-09-23 19:31:00,
2013-09-23 13:36:00,72.6,38.5,29.88,East,88,2.0,16.0,29,0.00,,,0.00,WeatherTracker,2013-09-23 19:36:00,
2013-09-23 13:41:00,74.1,38.9,29.88,ENE,71,3.0,16.0,28,0.00,,,0.00,WeatherTracker,2013-09-23 19:41:00,
2013-09-23 13:46:00,74.8,39.5,29.88,West,276,10.0,10.0,28,0.00,,,0.00,WeatherTracker,2013-09-23 19:46:00,
2013-09-23 13:51:00,74.5,38.3,29.88,East,80,6.0,10.0,27,0.00,,,0.00,WeatherTracker,2013-09-23 19:51:00,
2013-09-23 13:56:00,74.4,37.3,29.88,SSE,147,5.0,10.0,26,0.00,,,0.00,WeatherTracker,2013-09-23 19:56:00,
2013-09-23 14:02:00,74.7,38.5,29.88,SE,128,6.0,10.0,27,0.00,,,0.00,WeatherTracker,2013-09-23 20:02:00,
2013-09-23 14:07:00,74.1,38.0,29.88,SE,142,6.0,9.0,27,0.00,,,0.00,WeatherTracker,2013-09-23 20:07:00,
2013-09-23 14:12:00,74.0,37.9,29.89,NE,34,2.0,11.0,27,0.00,,,0.00,WeatherTracker,2013-09-23 20:12:00,
2013-09-23 14:17:00,74.4,38.2,29.88,SE,144,2.0,11.0,27,0.00,,,0.00,WeatherTracker,2013-09-23 20:17:00,
2013-09-23 14:22:00,74.8,36.6,29.88,ENE,76,4.0,10.0,25,0.00,,,0.00,WeatherTracker,2013-09-23 20:22:00,
2013-09-23 14:27:00,75.2,37.9,29.88,SE,127,5.0,10.0,26,0.00,,,0.00,WeatherTracker,2013-09-23 20:27:00,
2013-09-23 14:32:00,75.1,37.9,29.88,East,90,5.0,12.0,26,0.00,,,0.00,WeatherTracker,2013-09-23 20:32:00,
2013-09-23 14:37:00,74.9,37.7,29.89,SE,130,4.0,12.0,26,0.00,,,0.00,WeatherTracker,2013-09-23 20:37:00,
2013-09-23 14:42:00,74.8,37.6,29.89,WNW,283,6.0,10.0,26,0.00,,,0.00,WeatherTracker,2013-09-23 20:42:00,
2013-09-23 14:47:00,75.1,37.9,29.89,ESE,110,1.0,10.0,26,0.00,,,0.00,WeatherTracker,2013-09-23 20:47:00,
2013-09-23 14:52:00,75.3,37.0,29.89,SSE,166,4.0,7.0,25,0.00,,,0.00,WeatherTracker,2013-09-23 20:52:00,
2013-09-23 14:57:00,75.2,37.9,29.89,NNW,329,0.0,9.0,26,0.00,,,0.00,WeatherTracker,2013-09-23 20:57:00,
2013-09-23 15:02:00,75.6,37.3,29.89,SSW,202,2.0,9.0,25,0.00,,,0.00,WeatherTracker,2013-09-23 21:02:00,
2013-09-23 15:08:00,75.4,37.1,29.89,SE,137,8.0,9.0,25,0.00,,,0.00,WeatherTracker,2013-09-23 21:08:00,
2013-09-23 15:13:00,75.8,37.5,29.89,South,171,2.0,12.0,25,0.00,,,0.00,WeatherTracker,2013-09-23 21:13:00,
2013-09-23 15:18:00,75.7,36.3,29.89,ESE,113,3.0,12.0,24,0.00,,,0.00,WeatherTracker,2013-09-23 21:18:00,
2013-09-23 15:23:00,75.7,37.4,29.89,SW,232,1.0,9.0,25,0.00,,,0.00,WeatherTracker,2013-09-23 21:23:00,
2013-09-23 15:28:00,75.7,35.3,29.89,South,187,1.0,9.0,23,0.00,,,0.00,WeatherTracker,2013-09-23 21:28:00,
2013-09-23 15:33:00,76.2,35.7,29.89,South,171,3.0,9.0,23,0.00,,,0.00,WeatherTracker,2013-09-23 21:33:00,
2013-09-23 15:38:00,76.5,38.0,29.88,SSE,163,2.0,9.0,25,0.00,,,0.00,WeatherTracker,2013-09-23 21:38:00,
2013-09-23 15:43:00,76.1,36.7,29.89,ENE,58,2.0,9.0,24,0.00,,,0.00,WeatherTracker,2013-09-23 21:43:00,
2013-09-23 15:48:00,76.4,34.7,29.89,West,273,5.0,10.0,22,0.00,,,0.00,WeatherTracker,2013-09-23 21:48:00,
2013-09-23 15:53:00,76.3,35.8,29.89,NW,311,2.0,10.0,23,0.00,,,0.00,WeatherTracker,2013-09-23 21:53:00,
2013-09-23 15:58:00,76.5,37.0,29.89,WSW,242,3.0,10.0,24,0.00,,,0.00,WeatherTracker,2013-09-23 21:58:00,
2013-09-23 16:03:00,76.2,34.6,29.89,NE,36,4.0,9.0,22,0.00,,,0.00,WeatherTracker,2013-09-23 22:03:00,
2013-09-23 16:08:00,75.5,35.1,29.89,SE,137,3.0,9.0,23,0.00,,,0.00,WeatherTracker,2013-09-23 22:08:00,
2013-09-23 16:13:00,75.8,36.4,29.89,ESE,123,4.0,9.0,24,0.00,,,0.00,WeatherTracker,2013-09-23 22:13:00,
2013-09-23 16:18:00,75.6,36.3,29.89,SW,232,2.0,8.0,24,0.00,,,0.00,WeatherTracker,2013-09-23 22:18:00,
2013-09-23 16:23:00,76.1,35.6,29.89,NW,324,0.0,8.0,23,0.00,,,0.00,WeatherTracker,2013-09-23 22:23:00,
2013-09-23 16:29:00,75.7,34.1,29.89,NNW,337,3.0,10.0,22,0.00,,,0.00,WeatherTracker,2013-09-23 22:29:00,
2013-09-23 16:34:00,75.4,33.9,29.89,North,360,1.0,11.0,22,0.00,,,0.00,WeatherTracker,2013-09-23 22:34:00,
2013-09-23 16:39:00,75.3,32.7,29.89,WSW,244,3.0,9.0,21,0.00,,,0.00,WeatherTracker,2013-09-23 22:39:00,
2013-09-23 16:44:00,75.2,34.8,29.89,NW,319,3.0,9.0,23,0.00,,,0.00,WeatherTracker,2013-09-23 22:44:00,
2013-09-23 16:49:00,75.0,34.7,29.89,WNW,292,6.0,11.0,23,0.00,,,0.00,WeatherTracker,2013-09-23 22:49:00,
2013-09-23 16:54:00,75.0,35.7,29.89,NNW,339,2.0,11.0,24,0.00,,,0.00,WeatherTracker,2013-09-23 22:54:00,
2013-09-23 16:59:00,74.9,34.6,29.89,SE,144,3.0,11.0,23,0.00,,,0.00,WeatherTracker,2013-09-23 22:59:00,
2013-09-23 17:04:00,74.9,34.6,29.89,South,186,1.0,11.0,23,0.00,,,0.00,WeatherTracker,2013-09-23 23:04:00,
2013-09-23 17:09:00,74.9,33.5,29.90,SE,132,2.0,10.0,22,0.00,,,0.00,WeatherTracker,2013-09-23 23:09:00,
2013-09-23 17:14:00,74.3,34.1,29.90,SE,134,0.0,10.0,23,0.00,,,0.00,WeatherTracker,2013-09-23 23:14:00,
2013-09-23 17:19:00,74.3,33.0,29.90,NW,310,1.0,12.0,22,0.00,,,0.00,WeatherTracker,2013-09-23 23:19:00,
2013-09-23 17:24:00,74.2,34.0,29.91,WSW,237,4.0,12.0,23,0.00,,,0.00,WeatherTracker,2013-09-23 23:24:00,
2013-09-23 17:29:00,74.0,33.8,29.91,West,268,1.0,8.0,23,0.00,,,0.00,WeatherTracker,2013-09-23 23:29:00,
2013-09-23 17:34:00,73.8,33.7,29.91,SE,136,0.0,8.0,23,0.00,,,0.00,WeatherTracker,2013-09-23 23:34:00,
2013-09-23 17:39:00,73.7,33.6,29.91,West,261,1.0,8.0,23,0.00,,,0.00,WeatherTracker,2013-09-23 23:39:00,
2013-09-23 17:44:00,73.4,34.4,29.92,SSW,210,1.0,9.0,24,0.00,,,0.00,WeatherTracker,2013-09-23 23:44:00,
2013-09-23 17:50:00,73.2,34.2,29.92,ENE,60,1.0,9.0,24,0.00,,,0.00,WeatherTracker,2013-09-23 23:50:00,
2013-09-23 17:55:00,73.0,34.1,29.92,East,93,7.0,10.0,24,0.00,,,0.00,WeatherTracker,2013-09-23 23:55:00,
2013-09-23 18:00:00,72.9,34.0,29.92,West,267,2.0,10.0,24,0.00,,,0.00,WeatherTracker,2013-09-24 00:00:00,
2013-09-23 18:05:00,72.6,34.8,29.92,West,259,3.0,10.0,25,0.00,,,0.00,WeatherTracker,2013-09-24 00:05:00,
2013-09-23 18:10:00,72.5,34.7,29.93,South,178,0.0,10.0,25,0.00,,,0.00,WeatherTracker,2013-09-24 00:10:00,
2013-09-23 18:15:00,72.2,34.4,29.93,NW,307,1.0,9.0,25,0.00,,,0.00,WeatherTracker,2013-09-24 00:15:00,
2013-09-23 18:20:00,72.1,34.3,29.93,South,171,2.0,8.0,25,0.00,,,0.00,WeatherTracker,2013-09-24 00:20:00,
2013-09-23 18:25:00,71.6,33.9,29.93,WNW,285,0.0,8.0,25,0.00,,,0.00,WeatherTracker,2013-09-24 00:25:00,
2013-09-23 18:30:00,71.5,34.8,29.93,SE,130,1.0,7.0,26,0.00,,,0.00,WeatherTracker,2013-09-24 00:30:00,
2013-09-23 18:35:00,71.3,33.7,29.93,SSE,163,2.0,7.0,25,0.00,,,0.00,WeatherTracker,2013-09-24 00:35:00,
2013-09-23 18:40:00,71.1,34.5,29.94,South,186,2.0,7.0,26,0.00,,,0.00,WeatherTracker,2013-09-24 00:40:00,
2013-09-23 18:45:00,70.8,34.2,29.94,West,262,1.0,4.0,26,0.00,,,0.00,WeatherTracker,2013-09-24 00:45:00,
2013-09-23 18:50:00,70.5,34.9,29.94,NE,46,0.0,3.0,27,0.00,,,0.00,WeatherTracker,2013-09-24 00:50:00,
2013-09-23 18:55:00,70.1,34.6,29.95,SW,219,1.0,4.0,27,0.00,,,0.00,WeatherTracker,2013-09-24 00:55:00,
2013-09-23 19:00:00,69.8,34.3,29.95,East,101,1.0,5.0,27,0.00,,,0.00,WeatherTracker,2013-09-24 01:00:00,
2013-09-23 19:05:00,69.4,34.9,29.95,SW,233,0.0,5.0,28,0.00,,,0.00,WeatherTracker,2013-09-24 01:05:00,
2013-09-23 19:10:00,69.0,34.5,29.96,WSW,258,2.0,5.0,28,0.00,,,0.00,WeatherTracker,2013-09-24 01:10:00,
2013-09-23 19:15:00,68.9,34.4,29.96,WSW,244,0.0,5.0,28,0.00,,,0.00,WeatherTracker,2013-09-24 01:15:00,
2013-09-23 19:20:00,68.6,35.1,29.96,South,174,1.0,3.0,29,0.00,,,0.00,WeatherTracker,2013-09-24 01:20:00,
2013-09-23 19:26:00,68.5,35.0,29.96,SSW,211,0.0,3.0,29,0.00,,,0.00,WeatherTracker,2013-09-24 01:26:00,
2013-09-23 19:31:00,68.2,34.7,29.96,NNW,336,1.0,3.0,29,0.00,,,0.00,WeatherTracker,2013-09-24 01:31:00,
2013-09-23 19:36:00,68.1,34.6,29.96,ENE,76,1.0,5.0,29,0.00,,,0.00,WeatherTracker,2013-09-24 01:36:00,
2013-09-23 19:41:00,68.0,35.4,29.96,ENE,74,0.0,5.0,30,0.00,,,0.00,WeatherTracker,2013-09-24 01:41:00,
2013-09-23 19:46:00,67.9,35.3,29.96,West,264,0.0,3.0,30,0.00,,,0.00,WeatherTracker,2013-09-24 01:46:00,
2013-09-23 19:51:00,67.4,34.9,29.97,WSW,252,0.0,3.0,30,0.00,,,0.00,WeatherTracker,2013-09-24 01:51:00,
2013-09-23 19:56:00,67.2,35.5,29.97,NNW,328,0.0,2.0,31,0.00,,,0.00,WeatherTracker,2013-09-24 01:56:00,
2013-09-23 20:01:00,67.2,34.7,29.97,NE,43,0.0,4.0,30,0.00,,,0.00,WeatherTracker,2013-09-24 02:01:00,
2013-09-23 20:06:00,67.1,35.4,29.98,South,184,0.0,4.0,31,0.00,,,0.00,WeatherTracker,2013-09-24 02:06:00,
2013-09-23 20:11:00,67.0,35.4,29.98,North,5,1.0,3.0,31,0.00,,,0.00,WeatherTracker,2013-09-24 02:11:00,
2013-09-23 20:16:00,66.9,35.3,29.99,SSW,196,2.0,6.0,31,0.00,,,0.00,WeatherTracker,2013-09-24 02:16:00,
2013-09-23 20:21:00,66.5,35.7,29.99,South,186,1.0,6.0,32,0.00,,,0.00,WeatherTracker,2013-09-24 02:21:00,
2013-09-23 20:26:00,66.2,35.5,30.00,South,187,0.0,4.0,32,0.00,,,0.00,WeatherTracker,2013-09-24 02:26:00,
2013-09-23 20:31:00,66.1,35.4,30.00,WSW,246,0.0,4.0,32,0.00,,,0.00,WeatherTracker,2013-09-24 02:31:00,
2013-09-23 20:36:00,65.8,35.9,30.00,WSW,253,0.0,4.0,33,0.00,,,0.00,WeatherTracker,2013-09-24 02:36:00,
2013-09-23 20:42:00,65.5,35.6,30.00,WNW,283,0.0,2.0,33,0.00,,,0.00,WeatherTracker,2013-09-24 02:42:00,
2013-09-23 20:47:00,65.3,35.5,30.00,West,264,0.0,3.0,33,0.00,,,0.00,WeatherTracker,2013-09-24 02:47:00,
2013-09-23 20:52:00,65.1,36.0,30.01,West,265,0.0,3.0,34,0.00,,,0.00,WeatherTracker,2013-09-24 02:52:00,
2013-09-23 20:57:00,65.1,36.0,30.01,SW,215,1.0,3.0,34,0.00,,,0.00,WeatherTracker,2013-09-24 02:57:00,
2013-09-23 21:02:00,64.8,35.8,30.01,SW,216,0.0,1.0,34,0.00,,,0.00,WeatherTracker,2013-09-24 03:02:00,
2013-09-23 21:07:00,64.0,36.5,30.01,SW,216,1.0,1.0,36,0.00,,,0.00,WeatherTracker,2013-09-24 03:07:00,
2013-09-23 21:12:00,63.1,36.4,30.02,SW,216,0.0,2.0,37,0.00,,,0.00,WeatherTracker,2013-09-24 03:12:00,
2013-09-23 21:17:00,62.7,36.7,30.02,SW,216,0.0,2.0,38,0.00,,,0.00,WeatherTracker,2013-09-24 03:17:00,
2013-09-23 21:22:00,62.3,36.4,30.02,SW,216,0.0,0.0,38,0.00,,,0.00,WeatherTracker,2013-09-24 03:22:00,
2013-09-23 21:27:00,62.0,36.8,30.02,SW,216,0.0,1.0,39,0.00,,,0.00,WeatherTracker,2013-09-24 03:27:00,
2013-09-23 21:32:00,61.7,36.5,30.02,SW,216,0.0,1.0,39,0.00,,,0.00,WeatherTracker,2013-09-24 03:32:00,
2013-09-23 21:37:00,61.8,37.2,30.02,SW,215,0.0,1.0,40,0.00,,,0.00,WeatherTracker,2013-09-24 03:37:00,
2013-09-23 21:42:00,62.2,36.3,30.02,SSE,154,0.0,2.0,38,0.00,,,0.00,WeatherTracker,2013-09-24 03:42:00,
2013-09-23 21:47:00,62.5,35.9,30.03,SSW,194,0.0,2.0,37,0.00,,,0.00,WeatherTracker,2013-09-24 03:47:00,
2013-09-23 21:52:00,62.6,36.0,30.03,West,259,0.0,6.0,37,0.00,,,0.00,WeatherTracker,2013-09-24 03:52:00,
2013-09-23 21:57:00,62.6,36.0,30.03,WSW,256,0.0,6.0,37,0.00,,,0.00,WeatherTracker,2013-09-24 03:57:00,
2013-09-23 22:01:00,62.6,36.0,30.03,SSE,165,0.0,4.0,37,0.00,,,0.00,WeatherTracker,2013-09-24 04:01:00,
2013-09-23 22:02:00,62.5,35.9,30.03,SSE,165,0.0,4.0,37,0.00,,,0.00,WeatherTracker,2013-09-24 04:02:00,
2013-09-23 22:07:00,62.0,36.1,30.03,SW,234,0.0,2.0,38,0.00,,,0.00,WeatherTracker,2013-09-24 04:07:00,
2013-09-23 22:12:00,61.6,37.0,30.04,SW,234,0.0,2.0,40,0.00,,,0.00,WeatherTracker,2013-09-24 04:12:00,
2013-09-23 22:17:00,61.4,36.9,30.03,SW,234,0.0,1.0,40,0.00,,,0.00,WeatherTracker,2013-09-24 04:17:00,
2013-09-23 22:22:00,61.1,36.6,30.03,SW,234,0.0,1.0,40,0.00,,,0.00,WeatherTracker,2013-09-24 04:22:00,
2013-09-23 22:27:00,60.7,36.9,30.03,SW,234,0.0,1.0,41,0.00,,,0.00,WeatherTracker,2013-09-24 04:27:00,
2013-09-23 22:32:00,60.5,37.3,30.03,SW,232,1.0,2.0,42,0.00,,,0.00,WeatherTracker,2013-09-24 04:32:00,
2013-09-23 22:37:00,60.8,37.6,30.03,South,180,0.0,3.0,42,0.00,,,0.00,WeatherTracker,2013-09-24 04:37:00,
2013-09-23 22:42:00,60.4,37.8,30.03,South,180,0.0,3.0,43,0.00,,,0.00,WeatherTracker,2013-09-24 04:42:00,
2013-09-23 22:47:00,60.4,37.8,30.03,South,180,1.0,2.0,43,0.00,,,0.00,WeatherTracker,2013-09-24 04:47:00,
2013-09-23 22:52:00,60.6,38.0,30.03,South,180,0.0,2.0,43,0.00,,,0.00,WeatherTracker,2013-09-24 04:52:00,
2013-09-23 22:57:00,60.5,37.3,30.03,South,181,0.0,2.0,42,0.00,,,0.00,WeatherTracker,2013-09-24 04:57:00,
2013-09-23 23:02:00,60.4,38.4,30.03,South,172,0.0,2.0,44,0.00,,,0.00,WeatherTracker,2013-09-24 05:02:00,
2013-09-23 23:07:00,60.5,37.9,30.03,South,172,0.0,2.0,43,0.00,,,0.00,WeatherTracker,2013-09-24 05:07:00,
2013-09-23 23:12:00,60.3,37.7,30.03,South,172,1.0,1.0,43,0.00,,,0.00,WeatherTracker,2013-09-24 05:12:00,
2013-09-23 23:17:00,60.5,37.9,30.03,South,171,1.0,2.0,43,0.00,,,0.00,WeatherTracker,2013-09-24 05:17:00,
2013-09-23 23:22:00,60.3,37.7,30.03,South,171,0.0,2.0,43,0.00,,,0.00,WeatherTracker,2013-09-24 05:22:00,
2013-09-23 23:27:00,59.9,38.5,30.03,South,171,0.0,2.0,45,0.00,,,0.00,WeatherTracker,2013-09-24 05:27:00,
2013-09-23 23:33:00,59.7,38.9,30.04,South,171,0.0,2.0,46,0.00,,,0.00,WeatherTracker,2013-09-24 05:33:00,
2013-09-23 23:38:00,58.8,39.2,30.04,South,171,0.0,1.0,48,0.00,,,0.00,WeatherTracker,2013-09-24 05:38:00,
2013-09-23 23:43:00,58.1,39.0,30.04,South,171,0.0,1.0,49,0.00,,,0.00,WeatherTracker,2013-09-24 05:43:00,
2013-09-23 23:48:00,58.1,39.6,30.04,South,171,0.0,1.0,50,0.00,,,0.00,WeatherTracker,2013-09-24 05:48:00,
2013-09-23 23:53:00,57.6,39.6,30.03,South,171,0.0,0.0,51,0.00,,,0.00,WeatherTracker,2013-09-24 05:53:00,
2013-09-23 23:58:00,57.7,39.7,30.04,South,171,0.0,0.0,51,0.00,,,0.00,WeatherTracker,2013-09-24 05:58:00,